createdAt,value
2023-04-14T00:00:03.245Z,96619.34
2023-04-14T00:02:40.104Z,96622.88
2023-04-14T00:05:10.257Z,96626.75
2023-04-14T00:07:37.794Z,96622.63
2023-04-14T00:10:05.780Z,96621.88
2023-04-14T00:12:33.268Z,96623.81
2023-04-14T00:15:00.769Z,96623.75
2023-04-14T00:17:28.275Z,96616.47
2023-04-14T00:19:56.042Z,96620.72
2023-04-14T00:22:24.853Z,96623.81
2023-04-14T00:24:52.348Z,96634.25
2023-04-14T00:27:19.862Z,96628.09
2023-04-14T00:29:47.424Z,96636.34
2023-04-14T00:32:14.932Z,96635.31
2023-04-14T00:34:42.456Z,96646.34
2023-04-14T00:37:10.466Z,96647.41
2023-04-14T00:39:39.347Z,96650.50
2023-04-14T00:42:06.888Z,96648.09
2023-04-14T00:44:34.384Z,96652.38
2023-04-14T00:47:02.290Z,96651.31
2023-04-14T00:49:29.823Z,96641.97
2023-04-14T00:51:57.550Z,96640.34
2023-04-14T00:54:26.500Z,96647.22
2023-04-14T00:56:57.390Z,96649.31
2023-04-14T00:59:25.600Z,96638.72
2023-04-14T01:01:53.306Z,96635.81
2023-04-14T01:04:21.204Z,96637.59
2023-04-14T01:06:48.782Z,96635.25
2023-04-14T01:09:16.719Z,96629.28
2023-04-14T01:11:51.718Z,96627.72
2023-04-14T01:14:31.470Z,96627.41
2023-04-14T01:17:02.971Z,96631.91
2023-04-14T01:19:42.674Z,96639.06
2023-04-14T01:22:11.062Z,96637.50
2023-04-14T01:24:51.768Z,96630.94
2023-04-14T01:27:33.705Z,96635.78
2023-04-14T01:30:17.326Z,96639.66
2023-04-14T01:32:47.504Z,96644.78
2023-04-14T01:35:20.778Z,96654.94
2023-04-14T01:37:49.887Z,96654.31
2023-04-14T01:40:18.390Z,96660.13
2023-04-14T01:42:48.851Z,96648.00
2023-04-14T01:45:18.046Z,96661.00
2023-04-14T01:47:47.554Z,96652.44
2023-04-14T01:50:16.153Z,96654.16
2023-04-14T01:52:44.449Z,96647.97
2023-04-14T01:55:12.757Z,96640.19
2023-04-14T01:57:44.043Z,96636.13
2023-04-14T02:00:12.902Z,96638.59
2023-04-14T02:02:44.520Z,96623.78
2023-04-14T02:05:14.030Z,96625.81
2023-04-14T02:07:43.901Z,96631.28
2023-04-14T02:10:12.102Z,96633.53
2023-04-14T02:12:44.146Z,96630.34
2023-04-14T02:15:13.629Z,96631.31
2023-04-14T02:17:41.650Z,96625.41
2023-04-14T02:20:11.096Z,96620.47
2023-04-14T02:22:40.041Z,96621.94
2023-04-14T02:25:08.304Z,96607.22
2023-04-14T02:27:38.359Z,96613.34
2023-04-14T02:30:11.259Z,96621.31
2023-04-14T02:32:40.923Z,96626.84
2023-04-14T02:35:13.568Z,96631.00
2023-04-14T02:37:45.393Z,96633.47
2023-04-14T02:40:15.363Z,96635.34
2023-04-14T02:42:48.030Z,96637.09
2023-04-14T02:45:20.590Z,96640.41
2023-04-14T02:47:53.838Z,96640.56
2023-04-14T02:50:22.683Z,96647.72
2023-04-14T02:53:05.653Z,96642.94
2023-04-14T02:55:37.747Z,96645.59
2023-04-14T02:58:05.965Z,96640.31
2023-04-14T03:00:38.012Z,96639.47
2023-04-14T03:03:06.837Z,96638.72
2023-04-14T03:05:36.076Z,96642.22
2023-04-14T03:08:12.230Z,96638.16
2023-04-14T03:10:43.573Z,96639.66
2023-04-14T03:13:12.395Z,96645.28
2023-04-14T03:15:40.727Z,96645.41
2023-04-14T03:18:08.645Z,96656.28
2023-04-14T03:20:37.331Z,96650.94
2023-04-14T03:23:06.046Z,96653.78
2023-04-14T03:25:41.556Z,96642.00
2023-04-14T03:28:16.400Z,96640.34
2023-04-14T03:30:48.834Z,96635.41
2023-04-14T03:33:20.788Z,96631.94
2023-04-14T03:35:50.549Z,96627.97
2023-04-14T03:38:19.190Z,96629.97
2023-04-14T03:40:48.853Z,96629.22
2023-04-14T03:43:22.737Z,96640.16
2023-04-14T03:45:57.496Z,96637.78
2023-04-14T03:48:27.246Z,96634.50
2023-04-14T03:50:55.648Z,96635.59
2023-04-14T03:53:23.451Z,96633.63
2023-04-14T03:55:53.873Z,96626.94
2023-04-14T03:58:22.302Z,96635.09
2023-04-14T04:00:52.853Z,96622.59
2023-04-14T04:03:21.775Z,96624.69
2023-04-14T04:05:49.698Z,96633.00
2023-04-14T04:08:19.118Z,96635.19
2023-04-14T04:10:47.850Z,96648.16
2023-04-14T04:13:18.725Z,96649.72
2023-04-14T04:15:49.498Z,96647.59
2023-04-14T04:18:18.234Z,96647.69
2023-04-14T04:20:47.556Z,96651.56
2023-04-14T04:23:17.572Z,96652.34
2023-04-14T04:25:45.454Z,96654.91
2023-04-14T04:28:22.778Z,96644.97
2023-04-14T04:30:51.522Z,96644.03
2023-04-14T04:33:19.354Z,96649.69
2023-04-14T04:35:47.811Z,96641.03
2023-04-14T04:38:15.421Z,96641.22
2023-04-14T04:40:46.272Z,96644.22
2023-04-14T04:43:23.966Z,96643.69
2023-04-14T04:46:03.537Z,96645.06
2023-04-14T04:48:31.366Z,96636.69
2023-04-14T04:50:58.865Z,96640.38
2023-04-14T04:53:26.342Z,96636.47
2023-04-14T04:55:53.885Z,96631.13
2023-04-14T04:58:21.368Z,96629.00
2023-04-14T05:00:50.326Z,96633.66
2023-04-14T05:03:18.075Z,96627.47
2023-04-14T05:05:45.772Z,96626.16
2023-04-14T05:08:15.053Z,96629.19
2023-04-14T05:10:42.885Z,96632.41
2023-04-14T05:13:10.450Z,96635.19
2023-04-14T05:15:37.968Z,96631.00
2023-04-14T05:18:06.990Z,96633.53
2023-04-14T05:20:35.104Z,96634.47
2023-04-14T05:23:03.137Z,96633.03
2023-04-14T05:25:30.812Z,96636.19
2023-04-14T05:27:58.337Z,96633.97
2023-04-14T05:30:26.496Z,96633.41
2023-04-14T05:32:54.019Z,96641.78
2023-04-14T05:35:24.921Z,96630.13
2023-04-14T05:37:52.512Z,96631.31
2023-04-14T05:40:20.750Z,96625.06
2023-04-14T05:42:48.270Z,96629.03
2023-04-14T05:45:15.936Z,96624.00
2023-04-14T05:47:43.892Z,96624.81
2023-04-14T05:50:12.221Z,96625.91
2023-04-14T05:52:41.137Z,96631.28
2023-04-14T05:55:09.330Z,96631.84
2023-04-14T05:57:36.920Z,96623.56
2023-04-14T06:00:06.173Z,96615.22
2023-04-14T06:02:40.763Z,96628.66
2023-04-14T06:05:09.387Z,96627.53
2023-04-14T06:07:37.303Z,96630.69
2023-04-14T06:10:07.281Z,96634.34
2023-04-14T06:12:34.871Z,96628.94
2023-04-14T06:15:02.520Z,96629.75
2023-04-14T06:17:30.032Z,96623.63
2023-04-14T06:19:58.171Z,96616.50
2023-04-14T06:22:29.213Z,96621.47
2023-04-14T06:24:57.294Z,96618.84
2023-04-14T06:27:26.222Z,96616.56
2023-04-14T06:29:53.826Z,96613.22
2023-04-14T06:32:21.506Z,96614.31
2023-04-14T06:34:50.717Z,96602.78
2023-04-14T06:37:19.565Z,96601.22
2023-04-14T06:39:47.177Z,96599.84
2023-04-14T06:42:15.425Z,96602.84
2023-04-14T06:44:44.250Z,96595.38
2023-04-14T06:47:11.769Z,96601.94
2023-04-14T06:49:39.305Z,96600.75
2023-04-14T06:52:07.345Z,96606.06
2023-04-14T06:54:34.948Z,96615.84
2023-04-14T06:57:03.020Z,96613.44
2023-04-14T06:59:30.595Z,96620.59
2023-04-14T07:01:59.632Z,96624.63
2023-04-14T07:04:27.289Z,96618.44
2023-04-14T07:06:54.767Z,96616.66
2023-04-14T07:09:22.717Z,96610.75
2023-04-14T07:11:50.272Z,96619.31
2023-04-14T07:14:17.758Z,96622.53
2023-04-14T07:16:45.309Z,96630.53
2023-04-14T07:19:14.185Z,96636.06
2023-04-14T07:21:41.809Z,96632.78
2023-04-14T07:24:09.509Z,96631.94
2023-04-14T07:26:37.417Z,96628.56
2023-04-14T07:29:04.931Z,96620.41
2023-04-14T07:31:34.514Z,96621.44
2023-04-14T07:34:02.456Z,96622.72
2023-04-14T07:36:33.216Z,96606.81
2023-04-14T07:39:00.924Z,96606.84
2023-04-14T07:41:28.888Z,96608.09
2023-04-14T07:43:57.768Z,96608.09
2023-04-14T07:46:25.425Z,96604.63
2023-04-14T07:48:53.033Z,96604.84
2023-04-14T07:51:20.707Z,96615.88
2023-04-14T07:53:50.966Z,96623.59
2023-04-14T07:56:18.476Z,96623.63
2023-04-14T07:58:46.517Z,96615.88
2023-04-14T08:01:14.169Z,96625.47
2023-04-14T08:03:44.605Z,96624.06
2023-04-14T08:06:13.192Z,96625.09
2023-04-14T08:08:40.855Z,96616.50
2023-04-14T08:11:09.801Z,96599.53
2023-04-14T08:13:37.319Z,96600.38
2023-04-14T08:16:05.004Z,96598.31
2023-04-14T08:18:32.519Z,96598.31
2023-04-14T08:21:00.013Z,96605.28
2023-04-14T08:23:27.675Z,96604.66
2023-04-14T08:25:55.458Z,96603.84
2023-04-14T08:28:24.620Z,96604.47
2023-04-14T08:30:52.169Z,96603.25
2023-04-14T08:33:19.625Z,96605.47
2023-04-14T08:35:47.124Z,96619.81
2023-04-14T08:38:26.128Z,96622.88
2023-04-14T08:40:56.254Z,96624.72
2023-04-14T08:43:25.267Z,96615.50
2023-04-14T08:45:53.398Z,96606.53
2023-04-14T08:48:23.027Z,96615.09
2023-04-14T08:50:59.306Z,96621.22
2023-04-14T08:53:27.849Z,96614.25
2023-04-14T08:55:58.065Z,96613.25
2023-04-14T08:58:27.408Z,96605.31
2023-04-14T09:00:55.130Z,96611.44
2023-04-14T09:03:23.085Z,96616.13
2023-04-14T09:05:51.249Z,96614.50
2023-04-14T09:08:18.851Z,96617.56
2023-04-14T09:10:46.688Z,96611.03
2023-04-14T09:13:15.249Z,96611.41
2023-04-14T09:15:44.583Z,96622.19
2023-04-14T09:18:12.401Z,96612.81
2023-04-14T09:20:41.307Z,96616.88
2023-04-14T09:23:10.268Z,96603.81
2023-04-14T09:25:39.269Z,96617.69
2023-04-14T09:28:06.807Z,96619.91
2023-04-14T09:30:34.479Z,96625.66
2023-04-14T09:33:06.920Z,96616.44
2023-04-14T09:35:44.564Z,96617.88
2023-04-14T09:38:12.069Z,96619.28
2023-04-14T09:40:39.984Z,96629.47
2023-04-14T09:43:07.516Z,96632.31
2023-04-14T09:45:42.592Z,96630.09
2023-04-14T09:48:12.870Z,96630.09
2023-04-14T09:51:00.901Z,96631.16
2023-04-14T09:53:29.721Z,96630.53
2023-04-14T09:55:57.760Z,96626.91
2023-04-14T09:58:27.815Z,96624.88
2023-04-14T10:00:57.129Z,96629.16
2023-04-14T10:03:36.426Z,96634.25
2023-04-14T10:06:07.344Z,96636.72
2023-04-14T10:08:37.272Z,96638.94
2023-04-14T10:11:18.875Z,96650.16
2023-04-14T10:13:47.391Z,96648.56
2023-04-14T10:16:15.592Z,96647.31
2023-04-14T10:18:44.814Z,96639.97
2023-04-14T10:21:12.573Z,96649.78
2023-04-14T10:23:41.779Z,96658.16
2023-04-14T10:26:10.105Z,96656.72
2023-04-14T10:28:38.969Z,96653.03
2023-04-14T10:31:09.193Z,96650.59
2023-04-14T10:33:37.919Z,96641.22
2023-04-14T10:36:07.277Z,96636.72
2023-04-14T10:38:39.991Z,96643.88
2023-04-14T10:41:07.850Z,96639.00
2023-04-14T10:43:36.796Z,96634.31
2023-04-14T10:46:06.429Z,96629.00
2023-04-14T10:48:35.362Z,96623.28
2023-04-14T10:51:04.210Z,96614.09
2023-04-14T10:53:46.846Z,96611.03
2023-04-14T10:56:14.357Z,96612.84
2023-04-14T10:58:41.968Z,96607.34
2023-04-14T11:01:26.183Z,96607.56
2023-04-14T11:03:56.275Z,96606.97
2023-04-14T11:06:49.333Z,96604.28
2023-04-14T11:09:33.722Z,96604.09
2023-04-14T11:12:07.297Z,96608.00
2023-04-14T11:14:36.300Z,96597.16
2023-04-14T11:17:05.126Z,96593.47
2023-04-14T11:19:33.441Z,96584.66
2023-04-14T11:22:01.038Z,96585.28
2023-04-14T11:24:29.851Z,96589.56
2023-04-14T11:26:57.913Z,96588.53
2023-04-14T11:29:25.425Z,96588.16
2023-04-14T11:32:03.472Z,96575.25
2023-04-14T11:34:31.047Z,96580.78
2023-04-14T11:36:58.568Z,96574.25
2023-04-14T11:39:26.267Z,96572.38
2023-04-14T11:41:56.036Z,96577.28
2023-04-14T11:44:23.753Z,96582.22
2023-04-14T11:46:51.576Z,96580.38
2023-04-14T11:49:21.122Z,96578.13
2023-04-14T11:51:49.678Z,96583.03
2023-04-14T11:54:17.217Z,96572.19
2023-04-14T11:56:44.911Z,96575.06
2023-04-14T11:59:13.770Z,96573.84
2023-04-14T12:01:41.299Z,96578.75
2023-04-14T12:04:10.679Z,96575.06
2023-04-14T12:06:39.080Z,96568.34
2023-04-14T12:09:09.829Z,96564.44
2023-04-14T12:11:39.520Z,96560.53
2023-04-14T12:14:07.037Z,96551.72
2023-04-14T12:16:36.172Z,96557.00
2023-04-14T12:19:04.582Z,96554.75
2023-04-14T12:21:32.311Z,96550.84
2023-04-14T12:24:04.238Z,96543.25
2023-04-14T12:26:32.641Z,96543.03
2023-04-14T12:29:01.497Z,96547.94
2023-04-14T12:31:30.324Z,96543.22
2023-04-14T12:34:03.267Z,96541.75
2023-04-14T12:36:48.143Z,96536.06
2023-04-14T12:39:16.944Z,96537.66
2023-04-14T12:41:44.519Z,96533.09
2023-04-14T12:44:19.629Z,96523.69
2023-04-14T12:46:50.001Z,96518.00
2023-04-14T12:49:36.254Z,96520.03
2023-04-14T12:52:04.531Z,96519.84
2023-04-14T12:54:48.732Z,96514.75
2023-04-14T12:57:16.238Z,96520.50
2023-04-14T12:59:43.785Z,96509.28
2023-04-14T13:02:11.397Z,96515.19
2023-04-14T13:04:40.374Z,96517.22
2023-04-14T13:07:07.868Z,96511.16
2023-04-14T13:09:36.620Z,96507.72
2023-04-14T13:12:04.368Z,96516.91
2023-04-14T13:14:31.847Z,96512.19
2023-04-14T13:16:59.448Z,96514.06
2023-04-14T13:19:26.933Z,96514.50
2023-04-14T13:21:56.111Z,96512.44
2023-04-14T13:24:23.548Z,96509.13
2023-04-14T13:26:51.817Z,96507.44
2023-04-14T13:29:19.455Z,96509.72
2023-04-14T13:31:46.981Z,96504.13
2023-04-14T13:34:14.556Z,96501.31
2023-04-14T13:36:42.126Z,96501.31
2023-04-14T13:39:11.002Z,96499.25
2023-04-14T13:41:38.562Z,96498.03
2023-04-14T13:44:06.481Z,96503.75
2023-04-14T13:46:40.830Z,96492.28
2023-04-14T13:49:08.860Z,96491.47
2023-04-14T13:51:36.324Z,96497.53
2023-04-14T13:54:03.820Z,96490.38
2023-04-14T13:56:32.784Z,96487.69
2023-04-14T13:59:00.876Z,96488.88
2023-04-14T14:01:28.562Z,96494.56
2023-04-14T14:03:56.670Z,96493.31
2023-04-14T14:06:24.409Z,96482.63
2023-04-14T14:09:03.357Z,96484.34
2023-04-14T14:11:35.793Z,96479.91
2023-04-14T14:14:03.829Z,96481.34
2023-04-14T14:16:37.109Z,96484.50
2023-04-14T14:19:05.405Z,96483.38
2023-04-14T14:21:32.980Z,96494.19
2023-04-14T14:24:00.952Z,96480.72
2023-04-14T14:26:29.001Z,96483.13
2023-04-14T14:28:57.827Z,96478.78
2023-04-14T14:31:25.721Z,96470.59
2023-04-14T14:33:53.240Z,96474.53
2023-04-14T14:36:20.746Z,96474.34
2023-04-14T14:38:48.225Z,96478.78
2023-04-14T14:41:15.744Z,96477.16
2023-04-14T14:43:43.250Z,96474.53
2023-04-14T14:46:12.095Z,96472.03
2023-04-14T14:48:39.891Z,96467.84
2023-04-14T14:51:07.371Z,96474.41
2023-04-14T14:53:35.204Z,96475.97
2023-04-14T14:56:02.762Z,96464.56
2023-04-14T14:58:30.526Z,96474.03
2023-04-14T15:00:58.131Z,96472.19
2023-04-14T15:03:27.105Z,96473.56
2023-04-14T15:05:54.724Z,96480.53
2023-04-14T15:08:22.410Z,96477.88
2023-04-14T15:10:51.196Z,96481.41
2023-04-14T15:13:18.945Z,96477.50
2023-04-14T15:15:46.439Z,96482.00
2023-04-14T15:18:14.089Z,96491.25
2023-04-14T15:20:43.222Z,96497.25
2023-04-14T15:23:10.794Z,96488.09
2023-04-14T15:25:38.335Z,96489.53
2023-04-14T15:28:06.078Z,96498.75
2023-04-14T15:30:33.610Z,96493.81
2023-04-14T15:33:01.721Z,96495.66
2023-04-14T15:35:29.241Z,96500.00
2023-04-14T15:37:58.048Z,96505.94
2023-04-14T15:40:25.538Z,96513.28
2023-04-14T15:42:53.689Z,96503.91
2023-04-14T15:45:21.538Z,96514.75
2023-04-14T15:47:49.407Z,96514.97
2023-04-14T15:50:18.897Z,96510.22
2023-04-14T15:52:46.520Z,96507.59
2023-04-14T15:55:15.404Z,96500.03
2023-04-14T15:57:44.616Z,96504.53
2023-04-14T16:00:13.783Z,96503.69
2023-04-14T16:02:41.948Z,96506.75
2023-04-14T16:05:10.119Z,96503.91
2023-04-14T16:07:37.642Z,96507.97
2023-04-14T16:10:06.311Z,96506.34
2023-04-14T16:12:36.657Z,96509.44
2023-04-14T16:15:07.800Z,96514.53
2023-04-14T16:17:35.465Z,96516.41
2023-04-14T16:20:03.649Z,96518.63
2023-04-14T16:22:31.520Z,96512.91
2023-04-14T16:24:59.027Z,96516.78
2023-04-14T16:27:26.504Z,96511.91
2023-04-14T16:29:55.336Z,96510.47
2023-04-14T16:32:22.846Z,96518.22
2023-04-14T16:34:50.586Z,96516.78
2023-04-14T16:37:18.085Z,96513.75
2023-04-14T16:39:46.253Z,96515.38
2023-04-14T16:42:13.762Z,96520.28
2023-04-14T16:44:42.812Z,96520.69
2023-04-14T16:47:11.632Z,96509.25
2023-04-14T16:49:39.134Z,96518.41
2023-04-14T16:52:07.040Z,96510.25
2023-04-14T16:54:35.012Z,96513.13
2023-04-14T16:57:02.802Z,96520.47
2023-04-14T16:59:30.542Z,96519.66
2023-04-14T17:01:58.371Z,96512.72
2023-04-14T17:04:27.545Z,96513.13
2023-04-14T17:06:55.735Z,96509.66
2023-04-14T17:09:23.344Z,96511.28
2023-04-14T17:11:53.245Z,96505.97
2023-04-14T17:14:20.866Z,96505.34
2023-04-14T17:16:48.403Z,96507.81
2023-04-14T17:19:16.965Z,96500.66
2023-04-14T17:21:45.946Z,96509.25
2023-04-14T17:24:13.406Z,96507.81
2023-04-14T17:26:41.115Z,96498.63
2023-04-14T17:29:09.147Z,96500.25
2023-04-14T17:31:38.954Z,96506.59
2023-04-14T17:34:10.631Z,96508.44
2023-04-14T17:36:39.812Z,96511.09
2023-04-14T17:39:10.306Z,96502.09
2023-04-14T17:41:38.580Z,96510.47
2023-04-14T17:44:06.097Z,96510.25
2023-04-14T17:46:34.548Z,96510.06
2023-04-14T17:49:02.539Z,96510.47
2023-04-14T17:51:31.551Z,96518.84
2023-04-14T17:53:59.494Z,96518.84
2023-04-14T17:56:30.639Z,96518.81
2023-04-14T17:58:58.446Z,96510.03
2023-04-14T18:01:26.244Z,96511.09
2023-04-14T18:03:54.128Z,96515.97
2023-04-14T18:06:22.798Z,96512.09
2023-04-14T18:08:50.406Z,96512.91
2023-04-14T18:11:18.089Z,96517.22
2023-04-14T18:13:46.929Z,96523.53
2023-04-14T18:16:14.438Z,96524.16
2023-04-14T18:18:42.325Z,96518.22
2023-04-14T18:21:13.297Z,96525.78
2023-04-14T18:23:40.821Z,96530.25
2023-04-14T18:28:39.237Z,96535.59
2023-04-14T18:31:08.678Z,96530.25
2023-04-14T18:33:36.319Z,96529.88
2023-04-14T18:36:05.133Z,96535.38
2023-04-14T18:38:32.645Z,96535.34
2023-04-14T18:41:04.926Z,96539.66
2023-04-14T18:43:33.355Z,96538.63
2023-04-14T18:46:01.138Z,96542.91
2023-04-14T18:48:30.028Z,96539.84
2023-04-14T18:50:59.125Z,96538.19
2023-04-14T18:53:26.685Z,96539.66
2023-04-14T18:55:54.212Z,96539.59
2023-04-14T18:58:21.818Z,96545.09
2023-04-14T19:00:49.502Z,96545.34
2023-04-14T19:03:18.416Z,96540.81
2023-04-14T19:05:47.291Z,96543.28
2023-04-14T19:08:14.763Z,96537.53
2023-04-14T19:10:42.556Z,96535.69
2023-04-14T19:13:11.188Z,96533.88
2023-04-14T19:15:38.759Z,96537.78
2023-04-14T19:18:06.329Z,96534.09
2023-04-14T19:20:37.013Z,96537.53
2023-04-14T19:23:06.040Z,96531.63
2023-04-14T19:25:38.587Z,96538.97
2023-04-14T19:28:06.691Z,96543.47
2023-04-14T19:30:34.269Z,96533.47
2023-04-14T19:33:02.386Z,96540.81
2023-04-14T19:35:31.530Z,96534.66
2023-04-14T19:38:03.478Z,96532.59
2023-04-14T19:40:38.124Z,96529.38
2023-04-14T19:43:09.633Z,96534.44
2023-04-14T19:45:37.310Z,96531.56
2023-04-14T19:48:16.149Z,96528.69
2023-04-14T19:50:52.038Z,96532.09
2023-04-14T19:53:20.330Z,96530.63
2023-04-14T19:55:53.640Z,96538.59
2023-04-14T19:58:21.856Z,96532.28
2023-04-14T20:00:51.504Z,96539.22
2023-04-14T20:03:19.705Z,96524.34
2023-04-14T20:05:51.390Z,96519.28
2023-04-14T20:08:20.225Z,96524.19
2023-04-14T20:10:51.041Z,96506.84
2023-04-14T20:13:21.446Z,96506.03
2023-04-14T20:15:49.229Z,96508.22
2023-04-14T20:18:18.957Z,96510.09
2023-04-14T20:20:48.215Z,96504.75
2023-04-14T20:23:16.968Z,96497.41
2023-04-14T20:25:45.559Z,96498.44
2023-04-14T20:28:15.057Z,96502.28
2023-04-14T20:30:47.987Z,96504.56
2023-04-14T20:33:16.393Z,96506.59
2023-04-14T20:35:44.022Z,96499.66
2023-04-14T20:38:15.167Z,96490.47
2023-04-14T20:40:43.458Z,96486.19
2023-04-14T20:43:11.157Z,96488.41
2023-04-14T20:45:39.224Z,96491.91
2023-04-14T20:48:09.123Z,96487.84
2023-04-14T20:50:37.204Z,96492.09
2023-04-14T20:53:04.781Z,96493.53
2023-04-14T20:55:32.269Z,96488.78
2023-04-14T20:57:59.879Z,96491.03
2023-04-14T21:00:27.379Z,96483.50
2023-04-14T21:02:54.956Z,96481.44
2023-04-14T21:05:25.397Z,96475.13
2023-04-14T21:07:52.930Z,96479.22
2023-04-14T21:10:20.721Z,96480.63
2023-04-14T21:15:29.877Z,96480.25
2023-04-14T21:15:52.017Z,96476.78
2023-04-14T21:18:23.041Z,96476.34
2023-04-14T21:20:51.902Z,96481.88
2023-04-14T21:23:20.289Z,96475.31
2023-04-14T21:25:48.009Z,96474.50
2023-04-14T21:28:16.285Z,96477.41
2023-04-14T21:30:44.350Z,96478.22
2023-04-14T21:33:11.926Z,96479.47
2023-04-14T21:35:39.528Z,96471.09
2023-04-14T21:38:09.511Z,96474.13
2023-04-14T21:40:37.035Z,96477.78
2023-04-14T21:43:04.560Z,96484.72
2023-04-14T21:45:32.836Z,96476.56
2023-04-14T21:48:00.520Z,96475.56
2023-04-14T21:50:28.195Z,96476.72
2023-04-14T21:52:56.445Z,96470.00
2023-04-14T21:55:25.361Z,96476.06
2023-04-14T21:57:54.419Z,96483.63
2023-04-14T22:00:22.116Z,96472.22
2023-04-14T22:02:49.842Z,96482.44
2023-04-14T22:05:17.544Z,96481.63
2023-04-14T22:07:45.497Z,96474.69
2023-04-14T22:10:13.025Z,96477.72
2023-04-14T22:12:42.435Z,96470.38
2023-04-14T22:15:10.873Z,96466.28
2023-04-14T22:17:39.359Z,96468.94
2023-04-14T22:20:07.827Z,96464.28
2023-04-14T22:22:35.419Z,96467.25
2023-04-14T22:25:03.626Z,96475.22
2023-04-14T22:27:31.362Z,96469.91
2023-04-14T22:30:00.241Z,96462.38
2023-04-14T22:32:28.078Z,96476.63
2023-04-14T22:34:55.576Z,96461.97
2023-04-14T22:37:23.087Z,96472.19
2023-04-14T22:39:50.805Z,96460.38
2023-04-14T22:42:18.314Z,96452.59
2023-04-14T22:44:47.962Z,96454.84
2023-04-14T22:47:16.950Z,96458.28
2023-04-14T22:49:44.540Z,96461.53
2023-04-14T22:52:12.297Z,96465.03
2023-04-14T22:54:39.860Z,96454.41
2023-04-14T22:57:07.339Z,96455.03
2023-04-14T22:59:34.843Z,96457.25
2023-04-14T23:02:02.458Z,96464.19
2023-04-14T23:04:31.400Z,96465.66
2023-04-14T23:06:59.215Z,96464.19
2023-04-14T23:09:30.247Z,96458.69
2023-04-14T23:11:57.807Z,96467.41
2023-04-14T23:14:25.525Z,96462.88
2023-04-14T23:16:53.157Z,96459.19
2023-04-14T23:19:20.837Z,96458.78
2023-04-14T23:21:50.943Z,96452.88
2023-04-14T23:24:18.550Z,96452.50
2023-04-14T23:26:46.519Z,96444.16
2023-04-14T23:29:14.000Z,96446.38
2023-04-14T23:31:41.483Z,96445.38
2023-04-14T23:34:10.775Z,96436.84
2023-04-14T23:36:38.563Z,96445.63
2023-04-14T23:39:07.511Z,96441.53
2023-04-14T23:41:35.076Z,96437.03
2023-04-14T23:44:02.719Z,96447.47
2023-04-14T23:46:30.390Z,96432.38
2023-04-14T23:48:59.049Z,96435.84
2023-04-14T23:51:37.996Z,96436.03
2023-04-14T23:54:08.188Z,96426.44
2023-04-14T23:56:35.729Z,96430.91
2023-04-14T23:59:03.568Z,96427.63
